Главная страница
METAR-TAF:

METAR-TAF

Аэропорты :

Бахрейн, Бахрейн

широта: 26-16N, долгота: 050-39E, высота над уровнем моря: 2 м

Текущие метеонаблюдения

Эта сводка был подготовлена 21 минут назад, в 05:30 UTC
Ветер 6 Узел от южный, изменяющийся между юго-восточный и южный-юго-западный
Температура 18°C
Влажность 68%
Давление 1016 hPa
Видимость: 6000 м

METAR: OBBI 240530Z 17006KT 130V210 6000 NSC 18/12 Q1016 TEMPO 5000

Время: 08:51 (05:51 UTC)

Прогноз

Эта сводка был подготовлена 51 минут назад, в 05:00 UTC
Прогноз действительный с 24-го 06 UTC до 25-го 12 UTC
Ветер 8 Узел от юго-юго-восточный
Видимость: 7000 м
временами
С 24-го 06 UTC до 24-го 10 UTC
Видимость: 4000 м
мгла

TAF: OBBI 240500Z 2406/2512 16008KT 7000 NSC TEMPO 2406/2410 4000 HZ

Метеонаблюдения и прогнозы для более 4000 аэропортов (сводки METAR и TAF).

Имеющиеся станции представлены на карте желтыми и красными точками.

Чтобы увидеть название станции, наведите на нее мышь.

Затем щелкните, чтобы увидеть метеонаблюдения и метеопрогнозы.

Управление картой: чтобы увеличить масштаб, щелкните зеленые кнопки с черным крестиком; чтобы уменьшить масштаб, щелкните зеленую кнопку с тире; для просмотра соседних карт щелкайте зеленые стрелки.


METAR-TAF: